Terminal Aerodrome Forecast
Issued by NWS Albuquerque, NM

Home | Current Version | Previous Version | Text Only | Print | Product List | Glossary On
Versions: 1 2 3 4 5 6 7 8 9 10 11 12
000
FTUS45 KABQ 290500 RRA
TAFABQ
TAF
KABQ 290543Z 2906/3006 36007KT P6SM BKN200
     FM291100 08012G21KT P6SM FEW080 BKN180
     FM291600 09020G30KT P6SM FEW045 BKN120
     FM300100 09024G35KT P6SM VCSH SCT040 OVC080=

USA.gov is the U.S. government's official web portal to all federal, state and local government web resources and services.